Time;durP1;ratioP1;P1;durP2;ratioP2;P2;SDS_P1;SDS_P2;PMS_P1;PMS_P2;Temp;Humidity;BMP_temperature;BMP_pressure;BME280_temperature;BME280_humidity;BME280_pressure;Samples;Min_cycle;Max_cycle;Signal;HPM_P1;HPM_P2
2021/12/13 00:01:43;;;;;;;3.97;2.92;;;;;;;4.91;64.38;99602.88;5089521;28;20054;-50
2021/12/13 00:04:23;;;;;;;4.25;3.08;;;;;;;4.73;64.68;99615.47;5090045;28;20052;-50
2021/12/13 00:06:57;;;;;;;3.47;2.78;;;;;;;4.67;64.17;99620.41;5089029;28;20016;-53
2021/12/13 00:09:23;;;;;;;3.85;2.90;;;;;;;5.00;63.38;99628.22;5089419;28;20023;-49
2021/12/13 00:11:52;;;;;;;4.13;2.80;;;;;;;5.16;62.71;99635.28;5094319;28;20027;-51
2021/12/13 00:14:20;;;;;;;4.95;2.65;;;;;;;4.83;63.38;99631.91;5094212;28;20065;-47
2021/12/13 00:16:48;;;;;;;3.92;2.60;;;;;;;4.82;63.00;99631.09;5094188;28;20095;-47
2021/12/13 00:19:22;;;;;;;3.80;2.60;;;;;;;4.43;63.17;99617.81;5093303;28;20112;-48
2021/12/13 00:21:52;;;;;;;3.05;2.50;;;;;;;4.74;62.35;99639.03;5091366;28;20392;-50
2021/12/13 00:24:22;;;;;;;;;;;;;;;4.75;62.88;99635.41;5093581;28;20349;-51
2021/12/13 00:26:49;;;;;;;2.70;2.40;;;;;;;4.76;62.11;99634.41;5093721;28;19908;-49
2021/12/13 00:29:17;;;;;;;3.72;2.58;;;;;;;4.77;62.11;99641.31;5092435;28;20023;-48
2021/12/13 00:31:43;;;;;;;3.78;2.63;;;;;;;4.79;62.15;99641.16;5092180;28;20024;-49
2021/12/13 00:34:15;;;;;;;3.97;2.63;;;;;;;5.07;62.20;99650.31;5093707;28;20105;-48
2021/12/13 00:37:02;;;;;;;4.28;2.80;;;;;;;4.85;61.76;99641.28;5093727;28;20368;-50
2021/12/13 00:39:56;;;;;;;3.28;2.50;;;;;;;5.09;60.90;99640.41;5082275;28;20028;-50
2021/12/13 00:42:23;;;;;;;3.55;2.67;;;;;;;5.03;61.05;99630.53;5092744;28;20039;-50
2021/12/13 00:44:51;;;;;;;4.07;2.70;;;;;;;4.86;61.00;99640.31;5093641;28;20070;-48
2021/12/13 00:47:21;;;;;;;3.55;2.83;;;;;;;4.84;61.02;99636.22;5093412;28;20026;-50
2021/12/13 00:49:50;;;;;;;3.47;2.60;;;;;;;4.96;60.84;99628.75;5093126;28;20487;-50
2021/12/13 00:52:16;;;;;;;2.97;2.50;;;;;;;4.82;60.98;99632.91;5093279;28;20027;-48
2021/12/13 00:54:42;;;;;;;3.88;2.70;;;;;;;4.82;60.97;99636.38;5093895;28;20073;-50
2021/12/13 00:57:21;;;;;;;2.53;2.05;;;;;;;4.70;61.26;99635.91;5093759;28;20020;-49
2021/12/13 00:59:50;;;;;;;5.47;3.20;;;;;;;4.70;61.46;99635.06;5093778;28;20024;-49
2021/12/13 01:02:39;;;;;;;5.85;3.60;;;;;;;4.73;61.49;99640.00;5093487;28;20035;-49
2021/12/13 01:05:11;;;;;;;4.60;2.60;;;;;;;4.68;61.37;99637.06;5093469;28;20063;-50
2021/12/13 01:08:03;;;;;;;3.55;2.60;;;;;;;4.74;60.63;99627.66;5093686;28;20432;-50
2021/12/13 01:10:38;;;;;;;4.35;2.97;;;;;;;5.00;67.05;99637.97;5092262;28;20020;-50
2021/12/13 01:13:09;;;;;;;2.97;2.38;;;;;;;5.06;60.61;99632.84;5093305;28;20111;-48
2021/12/13 01:15:42;;;;;;;2.88;2.35;;;;;;;5.33;59.93;99632.56;5093533;28;20506;-49
2021/12/13 01:18:24;;;;;;;3.72;2.60;;;;;;;5.07;60.43;99638.94;5092245;28;20031;-48
2021/12/13 01:21:30;;;;;;;3.88;2.50;;;;;;;4.85;60.55;99643.13;5091799;28;20332;-49
2021/12/13 01:24:04;;;;;;;3.72;2.53;;;;;;;4.91;60.49;99639.78;5093553;28;20548;-49
2021/12/13 01:26:37;;;;;;;3.60;2.60;;;;;;;4.87;60.74;99649.88;5093362;28;20020;-51
2021/12/13 01:29:10;;;;;;;3.80;2.60;;;;;;;5.15;59.42;99649.44;5091918;28;20039;-49
2021/12/13 01:31:39;;;;;;;3.78;2.17;;;;;;;4.89;60.83;99642.63;5092630;28;20020;-51
2021/12/13 01:34:06;;;;;;;3.20;2.50;;;;;;;5.13;59.44;99638.25;5092644;28;20397;-51
2021/12/13 01:36:42;;;;;;;3.42;2.35;;;;;;;4.82;60.75;99638.19;5092918;28;20270;-50
2021/12/13 01:39:10;;;;;;;3.17;2.40;;;;;;;4.86;59.95;99627.13;5092888;28;20020;-49
2021/12/13 01:41:41;;;;;;;3.35;2.40;;;;;;;4.59;61.02;99624.88;5092423;28;20090;-48
2021/12/13 01:44:10;;;;;;;3.78;2.83;;;;;;;4.48;61.93;99618.16;5092390;28;20036;-48
2021/12/13 01:46:38;;;;;;;3.23;2.30;;;;;;;4.59;61.66;99622.22;5092422;28;20016;-49
2021/12/13 01:49:04;;;;;;;3.60;2.30;;;;;;;4.76;60.89;99625.66;5092544;28;20047;-51
2021/12/13 01:51:33;;;;;;;2.95;2.38;;;;;;;4.94;60.00;99630.75;5092847;28;20015;-48
2021/12/13 01:54:06;;;;;;;3.08;2.30;;;;;;;4.69;59.83;99625.53;5092283;28;20444;-51
2021/12/13 02:02:24;;;;;;;2.67;2.20;;;;;;;4.52;60.53;99616.81;5072065;28;20141;-48
2021/12/13 02:05:11;;;;;;;3.22;2.20;;;;;;;4.78;62.30;99621.88;5071786;28;20070;-49
2021/12/13 02:08:01;;;;;;;3.58;2.60;;;;;;;4.74;60.32;99627.66;5071962;28;20118;-49
2021/12/13 02:10:29;;;;;;;2.90;2.20;;;;;;;4.52;60.85;99611.56;5072032;28;20028;-50
2021/12/13 02:13:01;;;;;;;2.72;2.15;;;;;;;4.50;61.43;99609.06;5071879;28;20025;-50
2021/12/13 02:18:17;;;;;;;2.85;2.15;;;;;;;4.90;60.04;99614.44;5071669;28;20043;-49
2021/12/13 02:20:45;;;;;;;2.30;2.00;;;;;;;4.66;60.60;99617.94;5071732;28;20028;-48
2021/12/13 02:23:11;;;;;;;2.72;2.13;;;;;;;4.94;60.00;99615.72;5071994;28;20028;-51
2021/12/13 02:25:48;;;;;;;3.03;2.20;;;;;;;4.48;61.33;99621.59;5071888;28;20024;-49
2021/12/13 02:28:16;;;;;;;3.22;2.20;;;;;;;4.66;60.89;99610.88;5072065;28;20540;-51
2021/12/13 02:30:44;;;;;;;3.75;2.50;;;;;;;4.46;61.05;99622.78;5071851;28;20020;-50
2021/12/13 02:33:12;;;;;;;3.20;2.38;;;;;;;4.52;61.02;99619.47;5070683;28;20024;-48
2021/12/13 02:35:41;;;;;;;3.03;2.45;;;;;;;4.22;61.82;99621.78;5071695;28;20174;-50
2021/12/13 02:38:07;;;;;;;2.60;2.08;;;;;;;4.22;62.33;99620.97;5071189;28;20026;-49
2021/12/13 02:40:32;;;;;;;3.15;2.50;;;;;;;4.32;61.84;99621.59;5071375;28;20036;-50
2021/12/13 02:42:58;;;;;;;2.72;2.15;;;;;;;4.62;61.18;99635.09;5071305;28;20393;-49
2021/12/13 02:45:42;;;;;;;3.33;2.40;;;;;;;4.41;61.21;99632.97;5071885;28;20460;-52
2021/12/13 02:48:18;;;;;;;4.13;2.40;;;;;;;4.85;60.64;99651.03;5079681;28;20123;-50
2021/12/13 02:50:46;;;;;;;3.22;2.10;;;;;;;4.62;60.97;99645.63;5091675;28;20066;-49
2021/12/13 02:53:12;;;;;;;3.17;2.00;;;;;;;4.50;60.86;99635.44;5091682;28;20028;-51
2021/12/13 02:55:37;;;;;;;3.90;2.08;;;;;;;4.68;60.40;99652.88;5091287;28;20057;-49
2021/12/13 02:58:05;;;;;;;3.03;2.33;;;;;;;4.47;60.31;99640.22;5091558;28;20105;-52
2021/12/13 03:00:35;;;;;;;2.95;2.10;;;;;;;4.73;61.17;99645.28;5073433;28;20024;-50
2021/12/13 03:03:04;;;;;;;3.60;2.10;;;;;;;4.53;60.86;99644.81;5091583;28;20452;-52
2021/12/13 03:05:36;;;;;;;2.75;2.17;;;;;;;4.56;60.71;99644.50;5091558;28;20058;-50
2021/12/13 03:08:11;;;;;;;2.47;2.00;;;;;;;4.55;60.49;99642.00;5091489;28;20031;-48
2021/12/13 03:10:39;;;;;;;2.60;2.00;;;;;;;4.60;61.22;99642.34;5091513;28;20492;-51
2021/12/13 03:13:06;;;;;;;2.42;1.98;;;;;;;4.81;60.34;99641.81;5091567;28;20089;-51
2021/12/13 03:15:32;;;;;;;2.88;1.92;;;;;;;4.28;60.75;99639.59;5091495;28;20028;-50
2021/12/13 03:18:11;;;;;;;2.25;1.83;;;;;;;4.60;61.01;99642.34;5091548;28;20024;-49
2021/12/13 03:20:51;;;;;;;3.58;2.03;;;;;;;4.78;60.26;99639.50;5090289;28;20035;-49
2021/12/13 03:23:37;;;;;;;;;;;;;;;4.85;59.53;99637.84;5091647;28;20091;-51
2021/12/13 03:26:21;;;;;;;2.67;1.92;;;;;;;4.97;59.49;99640.94;5080356;28;20315;-49
2021/12/13 03:29:04;;;;;;;2.10;1.70;;;;;;;4.92;60.29;99649.38;5091442;28;20032;-48
2021/12/13 03:31:34;;;;;;;2.72;2.10;;;;;;;4.71;60.33;99647.28;5091059;28;20020;-48
2021/12/13 03:34:03;;;;;;;2.78;1.90;;;;;;;4.74;59.77;99638.19;5090855;28;20107;-51
2021/12/13 03:37:01;;;;;;;3.17;1.80;;;;;;;4.78;59.45;99644.78;5091205;28;20432;-50
2021/12/13 03:39:38;;;;;;;2.50;1.77;;;;;;;4.48;60.89;99644.50;5082506;28;20074;-51
2021/12/13 03:42:06;;;;;;;2.97;2.15;;;;;;;4.68;60.22;99648.44;5091352;28;20505;-48
2021/12/13 03:44:40;;;;;;;2.60;1.83;;;;;;;4.56;60.33;99662.94;5092621;28;20103;-51
2021/12/13 03:47:12;;;;;;;2.20;1.80;;;;;;;5.03;59.17;99664.84;5095254;28;20016;-48
2021/12/13 03:49:41;;;;;;;1.92;1.65;;;;;;;4.38;60.81;99671.03;5074942;28;20099;-48
2021/12/13 03:52:09;;;;;;;3.10;2.10;;;;;;;4.72;60.10;99667.34;5074797;28;20028;-49
2021/12/13 03:54:34;;;;;;;2.30;1.90;;;;;;;4.59;60.62;99665.25;5079607;28;20082;-52
2021/12/13 03:57:00;;;;;;;2.65;1.80;;;;;;;4.43;60.96;99671.34;5076631;28;20611;-48
2021/12/13 03:59:27;;;;;;;1.98;1.58;;;;;;;4.63;60.33;99677.09;5093402;28;20024;-49
2021/12/13 04:02:02;;;;;;;2.25;1.90;;;;;;;4.56;60.79;99672.66;5094470;28;20425;-50
2021/12/13 04:04:38;;;;;;;2.50;1.83;;;;;;;4.54;60.81;99672.00;5094509;28;20431;-50
2021/12/13 04:07:13;;;;;;;2.58;1.70;;;;;;;4.63;61.40;99674.47;5095207;28;20035;-52
2021/12/13 04:09:44;;;;;;;2.35;1.80;;;;;;;4.48;61.11;99676.13;5094730;28;20099;-50
2021/12/13 04:12:13;;;;;;;2.42;1.90;;;;;;;4.64;61.28;99683.19;5094989;28;20103;-52
2021/12/13 04:14:45;;;;;;;2.30;1.80;;;;;;;4.40;61.74;99689.28;5094796;28;20459;-51
2021/12/13 04:17:43;;;;;;;3.03;1.90;;;;;;;4.86;60.14;99693.06;5094753;28;20016;-50
2021/12/13 04:20:32;;;;;;;2.85;1.98;;;;;;;4.79;60.82;99692.06;5094516;28;20514;-50
2021/12/13 04:23:21;;;;;;;2.55;1.80;;;;;;;4.89;61.22;99691.88;5094483;28;20069;-51
2021/12/13 04:25:48;;;;;;;2.10;1.70;;;;;;;4.72;60.70;99685.00;5094539;28;20111;-49
2021/12/13 04:28:22;;;;;;;2.55;1.70;;;;;;;4.75;61.08;99679.41;5094420;28;20028;-48
2021/12/13 04:30:57;;;;;;;1.75;1.52;;;;;;;4.54;61.27;99678.09;5094202;28;20081;-49
2021/12/13 04:33:34;;;;;;;5.10;2.00;;;;;;;4.97;62.65;99678.69;5094561;28;20044;-52
2021/12/13 04:36:04;;;;;;;2.75;2.05;;;;;;;5.02;61.92;99686.91;5094117;28;20020;-51
2021/12/13 04:38:48;;;;;;;2.67;1.77;;;;;;;4.85;61.06;99685.31;5092787;28;20024;-50
2021/12/13 04:41:25;;;;;;;3.67;1.90;;;;;;;4.41;62.06;99685.69;5077394;28;20024;-49
2021/12/13 04:44:17;;;;;;;2.97;1.83;;;;;;;4.28;63.08;99684.38;5093769;28;20035;-49
2021/12/13 04:46:43;;;;;;;2.47;1.90;;;;;;;4.36;63.99;99688.81;5089510;28;20051;-49
2021/12/13 04:49:12;;;;;;;2.20;1.70;;;;;;;4.52;63.03;99692.44;5092787;28;20020;-50
2021/12/13 04:52:00;;;;;;;3.08;2.25;;;;;;;4.55;62.98;99681.53;5092350;28;20024;-49
2021/12/13 04:54:28;;;;;;;2.65;1.95;;;;;;;4.25;63.22;99684.69;5093903;28;20024;-49
2021/12/13 04:56:54;;;;;;;2.20;1.80;;;;;;;4.04;63.85;99681.72;5092597;28;20028;-52
2021/12/13 04:59:19;;;;;;;3.80;2.00;;;;;;;4.28;63.00;99687.00;5093760;28;20039;-50
2021/12/13 05:01:47;;;;;;;3.15;2.13;;;;;;;4.37;62.90;99687.00;5093295;28;20027;-50
2021/12/13 05:04:13;;;;;;;4.63;2.13;;;;;;;4.56;62.24;99691.94;5093345;28;20055;-49
2021/12/13 05:06:39;;;;;;;5.30;2.13;;;;;;;4.75;63.12;99700.50;5093283;28;20024;-49
2021/12/13 05:09:07;;;;;;;2.50;2.00;;;;;;;4.62;62.22;99695.72;5093656;28;20028;-49
2021/12/13 05:11:36;;;;;;;3.28;2.00;;;;;;;4.03;64.02;99701.13;5093069;28;20020;-50
2021/12/13 05:14:02;;;;;;;2.67;2.05;;;;;;;4.15;64.25;99707.75;5092650;28;20085;-50
2021/12/13 05:16:46;;;;;;;3.45;2.33;;;;;;;4.22;64.14;99706.06;5092026;28;20035;-51
2021/12/13 05:19:13;;;;;;;21.02;11.02;;;;;;;6.95;89.57;99716.16;5092680;28;20089;-52
2021/12/13 05:21:42;;;;;;;13.80;6.78;;;;;;;5.47;64.13;99700.47;5092554;28;20024;-49
2021/12/13 05:24:29;;;;;;;5.03;2.40;;;;;;;4.82;64.01;99712.03;5093001;28;20028;-50
2021/12/13 05:27:00;;;;;;;4.07;2.70;;;;;;;4.57;65.24;99709.41;5092940;28;20020;-49
2021/12/13 05:29:27;;;;;;;4.22;2.88;;;;;;;4.46;67.55;99717.63;5092197;28;20035;-49
2021/12/13 05:31:58;;;;;;;5.78;2.70;;;;;;;5.92;72.50;99716.56;5091873;28;20435;-50
2021/12/13 05:34:36;;;;;;;4.15;2.78;;;;;;;6.55;72.31;99720.81;5091676;28;20095;-53
2021/12/13 05:37:03;;;;;;;3.80;2.70;;;;;;;6.89;68.12;99723.97;5091478;28;20062;-50
2021/12/13 05:39:28;;;;;;;4.25;2.72;;;;;;;7.35;72.25;99735.25;5089754;28;20024;-51
2021/12/13 05:42:02;;;;;;;3.28;2.30;;;;;;;6.35;65.52;99715.19;5082074;28;20597;-53
2021/12/13 05:44:32;;;;;;;4.00;2.53;;;;;;;6.55;66.69;99736.69;5070926;28;20032;-52
2021/12/13 05:46:58;;;;;;;4.25;2.80;;;;;;;6.33;67.14;99734.88;5070862;28;20146;-51
2021/12/13 05:49:33;;;;;;;6.43;4.32;;;;;;;5.87;66.32;99725.84;5089908;28;20032;-52
2021/12/13 05:52:06;;;;;;;70.00;33.70;;;;;;;6.19;66.95;99734.63;5091730;28;20475;-51
2021/12/13 05:54:35;;;;;;;7.57;4.78;;;;;;;6.46;68.61;99733.28;5091559;28;20081;-53
2021/12/13 05:57:11;;;;;;;6.10;3.85;;;;;;;7.12;67.44;99745.09;5091546;28;20129;-54
2021/12/13 05:59:58;;;;;;;3.95;3.00;;;;;;;6.11;65.40;99744.41;5090341;28;20055;-54
2021/12/13 06:02:39;;;;;;;4.20;2.97;;;;;;;5.43;68.38;99746.69;5090651;28;20024;-53
2021/12/13 06:05:06;;;;;;;;;;;;;;;5.08;68.16;99756.63;5091586;28;20116;-54
2021/12/13 06:07:42;;;;;;;4.18;3.08;;;;;;;4.58;70.57;99744.50;5087658;28;20268;-52
2021/12/13 06:10:07;;;;;;;4.07;3.10;;;;;;;4.19;72.54;99761.75;5073680;28;20516;-51
2021/12/13 06:12:54;;;;;;;4.38;3.20;;;;;;;3.92;74.33;99761.00;5091163;28;20035;-53
2021/12/13 06:15:24;;;;;;;4.70;3.35;;;;;;;3.38;76.13;99763.06;5090646;28;20035;-51
2021/12/13 06:18:04;;;;;;;8.98;5.20;;;;;;;3.41;76.64;99754.88;5072139;28;20024;-55
2021/12/13 06:20:31;;;;;;;5.25;3.80;;;;;;;3.18;77.71;99756.38;5082015;28;20032;-53
2021/12/13 06:23:11;;;;;;;5.82;3.13;;;;;;;2.98;78.72;99756.59;5091550;28;20435;-54
2021/12/13 06:25:38;;;;;;;6.70;3.15;;;;;;;2.90;78.89;99761.78;5073620;28;20024;-53
2021/12/13 06:28:03;;;;;;;8.18;3.65;;;;;;;3.06;78.80;99763.69;5073833;28;20021;-53
2021/12/13 06:30:38;;;;;;;31.15;14.98;;;;;;;3.23;79.39;99762.00;5089311;28;20348;-53
2021/12/13 06:33:07;;;;;;;6.63;4.47;;;;;;;3.26;78.74;99774.84;5090651;28;20094;-51
2021/12/13 06:35:39;;;;;;;6.07;3.75;;;;;;;3.48;78.77;99784.84;5089891;28;20066;-54
2021/12/13 06:38:20;;;;;;;5.15;3.88;;;;;;;3.30;79.74;99779.63;5090398;28;20036;-52
2021/12/13 06:40:49;;;;;;;;;;;;;;;3.18;80.16;99774.78;5091339;28;20085;-54
2021/12/13 06:43:40;;;;;;;5.72;3.90;;;;;;;3.13;81.28;99781.34;5090846;28;20362;-54
2021/12/13 06:46:11;;;;;;;6.15;3.72;;;;;;;3.06;81.87;99784.75;5090503;28;20031;-53
2021/12/13 06:48:43;;;;;;;4.35;3.10;;;;;;;2.96;81.58;99779.56;5090472;28;20036;-54
2021/12/13 06:51:10;;;;;;;5.00;3.83;;;;;;;3.10;81.40;99783.44;5090172;28;20020;-54
2021/12/13 06:53:35;;;;;;;4.85;3.70;;;;;;;3.32;79.96;99797.91;5089596;28;20033;-53
2021/12/13 06:56:24;;;;;;;5.25;3.67;;;;;;;2.99;81.09;99789.81;5089167;28;20058;-55
2021/12/13 06:58:52;;;;;;;5.45;3.70;;;;;;;3.22;80.32;99784.84;5089543;28;20161;-54
2021/12/13 07:01:18;;;;;;;6.07;3.58;;;;;;;3.21;80.58;99790.25;5089329;28;20046;-52
2021/12/13 07:03:52;;;;;;;4.97;3.45;;;;;;;2.72;82.37;99794.19;5089349;28;20074;-52
2021/12/13 07:06:17;;;;;;;5.28;3.40;;;;;;;2.58;83.65;99807.84;5088228;28;20031;-54
2021/12/13 07:08:43;;;;;;;5.00;3.58;;;;;;;2.92;82.72;99807.16;5090183;28;20050;-54
2021/12/13 07:11:13;;;;;;;6.05;3.90;;;;;;;3.04;81.73;99813.81;5089673;28;20467;-51
2021/12/13 07:13:40;;;;;;;;;;;;;;;3.21;81.15;99813.94;5090139;28;20049;-50
2021/12/13 07:16:07;;;;;;;6.43;3.92;;;;;;;3.27;81.03;99818.56;5087868;28;19912;-51
2021/12/13 07:18:55;;;;;;;5.68;3.72;;;;;;;2.93;82.95;99824.56;5089100;28;20024;-51
2021/12/13 07:21:24;;;;;;;7.25;4.22;;;;;;;3.00;82.20;99824.78;5088459;28;20134;-52
2021/12/13 07:24:03;;;;;;;6.43;4.22;;;;;;;3.08;82.43;99833.56;5086906;28;20117;-52
2021/12/13 07:26:52;;;;;;;7.13;4.05;;;;;;;3.18;81.84;99836.13;5090041;28;20386;-51
2021/12/13 07:29:19;;;;;;;6.10;3.97;;;;;;;3.39;81.81;99840.19;5088238;28;20452;-52
2021/12/13 07:31:45;;;;;;;5.32;3.85;;;;;;;3.42;81.12;99850.41;5089699;28;20111;-52
2021/12/13 07:34:16;;;;;;;6.85;3.85;;;;;;;3.20;82.07;99851.72;5089224;28;20030;-52
2021/12/13 07:36:42;;;;;;;8.43;4.25;;;;;;;2.95;83.14;99851.53;5089889;28;20024;-53
2021/12/13 07:39:15;;;;;;;6.57;4.03;;;;;;;2.88;84.11;99863.66;5089598;28;20024;-51
2021/12/13 07:41:52;;;;;;;5.22;3.70;;;;;;;2.98;83.10;99863.56;5089475;28;20023;-53
2021/12/13 07:44:39;;;;;;;5.68;4.30;;;;;;;3.19;82.96;99871.13;5088254;28;20107;-55
2021/12/13 07:47:18;;;;;;;6.50;4.20;;;;;;;3.23;82.53;99878.56;5089662;28;20031;-51
2021/12/13 07:49:57;;;;;;;7.75;4.60;;;;;;;3.21;82.38;99870.00;5069115;28;20032;-53
2021/12/13 07:52:27;;;;;;;8.38;5.20;;;;;;;3.70;90.88;99880.03;5069275;28;20698;-56
2021/12/13 07:54:53;;;;;;;;;;;;;;;3.75;82.08;99872.50;5077544;28;20034;-55
2021/12/13 07:57:30;;;;;;;7.03;4.70;;;;;;;3.44;82.13;99880.84;5089452;28;20002;-54
2021/12/13 07:59:56;;;;;;;6.93;4.28;;;;;;;3.38;81.53;99884.09;5089758;28;20052;-54
2021/12/13 08:02:31;;;;;;;8.80;4.68;;;;;;;3.34;82.48;99888.00;5089621;28;20063;-54
2021/12/13 08:05:00;;;;;;;6.82;4.78;;;;;;;3.20;82.87;99885.91;5089488;28;20059;-55
2021/12/13 08:07:27;;;;;;;8.50;5.15;;;;;;;3.07;83.18;99896.84;5089032;28;20392;-54
2021/12/13 08:10:05;;;;;;;6.00;4.22;;;;;;;3.02;83.28;99896.47;5089217;28;20036;-52
2021/12/13 08:12:35;;;;;;;7.10;4.60;;;;;;;2.99;82.70;99904.63;5088888;28;20024;-51
2021/12/13 08:15:21;;;;;;;7.82;5.30;;;;;;;3.19;83.19;99897.44;5088676;28;20027;-51
2021/12/13 08:18:26;;;;;;;8.20;4.65;;;;;;;2.76;84.71;99902.47;5069222;28;20119;-52
2021/12/13 08:20:58;;;;;;;9.02;5.22;;;;;;;3.14;85.18;99908.38;5073138;28;20062;-52
2021/12/13 08:23:35;;;;;;;7.15;4.80;;;;;;;2.93;84.19;99901.66;5088342;28;20020;-53
2021/12/13 08:26:02;;;;;;;9.85;5.20;;;;;;;2.93;83.91;99908.69;5086571;28;20024;-54
2021/12/13 08:28:50;;;;;;;8.07;4.85;;;;;;;2.95;84.70;99904.09;5088873;28;20024;-53
2021/12/13 08:31:30;;;;;;;9.77;5.20;;;;;;;3.05;83.75;99909.31;5089311;28;20035;-54
2021/12/13 08:34:01;;;;;;;9.50;5.30;;;;;;;3.30;83.24;99907.72;5089218;28;20020;-52
2021/12/13 08:36:28;;;;;;;8.45;5.60;;;;;;;3.14;83.77;99913.66;5091973;28;20466;-53
2021/12/13 08:39:15;;;;;;;8.27;5.63;;;;;;;3.33;82.85;99913.50;5089870;28;20320;-53
2021/12/13 08:41:45;;;;;;;7.63;4.82;;;;;;;3.01;84.11;99908.78;5091164;28;20077;-52
2021/12/13 08:44:10;;;;;;;7.53;4.95;;;;;;;3.10;84.51;99907.03;5092819;28;20028;-53
2021/12/13 08:46:55;;;;;;;9.80;5.65;;;;;;;3.00;84.82;99903.66;5092337;28;20107;-52
2021/12/13 08:49:29;;;;;;;9.88;6.57;;;;;;;2.86;85.42;99912.91;5090550;28;20060;-54
2021/12/13 08:52:16;;;;;;;9.32;5.65;;;;;;;2.99;84.87;99900.22;5089526;28;20058;-53
2021/12/13 08:54:43;;;;;;;8.90;5.35;;;;;;;2.83;85.18;99894.81;5090291;28;20492;-54
2021/12/13 08:57:29;;;;;;;8.65;5.65;;;;;;;2.94;84.83;99890.16;5092237;28;20027;-55
2021/12/13 08:59:58;;;;;;;7.93;5.10;;;;;;;3.03;84.33;99906.00;5076520;28;20532;-53
2021/12/13 09:02:29;;;;;;;;;;;;;;;2.84;86.16;99902.53;5093035;28;20027;-55
2021/12/13 09:05:04;;;;;;;8.30;5.53;;;;;;;3.05;85.90;99898.81;5089817;28;20329;-55
2021/12/13 09:07:30;;;;;;;9.10;5.40;;;;;;;4.38;91.27;99907.34;5092601;28;20096;-55
2021/12/13 09:09:56;;;;;;;21.20;12.40;;;;;;;5.07;86.55;99910.63;5092161;28;20081;-53
2021/12/13 09:12:31;;;;;;;8.50;5.53;;;;;;;5.17;80.88;99903.38;5092047;28;20016;-56
2021/12/13 09:14:57;;;;;;;9.27;5.55;;;;;;;6.03;82.33;99898.50;5090245;28;20438;-55
2021/12/13 09:17:39;;;;;;;7.82;4.70;;;;;;;4.93;75.60;99908.63;5091240;28;20051;-53
2021/12/13 09:20:18;;;;;;;7.40;4.70;;;;;;;3.92;79.90;99899.72;5090756;28;20039;-53
2021/12/13 09:22:51;;;;;;;7.47;5.00;;;;;;;3.39;82.68;99891.03;5090724;28;20102;-54
2021/12/13 09:25:32;;;;;;;8.32;5.05;;;;;;;3.20;84.42;99878.03;5089951;28;20073;-55
2021/12/13 09:28:16;;;;;;;7.45;5.28;;;;;;;3.29;83.50;99887.63;5089702;28;20088;-51
2021/12/13 09:30:41;;;;;;;7.15;4.63;;;;;;;3.13;84.59;99889.16;5089867;28;20027;-52
2021/12/13 09:33:28;;;;;;;7.55;4.88;;;;;;;2.94;85.46;99898.03;5091581;28;20032;-53
2021/12/13 09:36:07;;;;;;;8.38;5.28;;;;;;;3.13;84.62;99889.16;5091644;28;20029;-52
2021/12/13 09:38:43;;;;;;;8.30;4.68;;;;;;;3.20;86.87;99888.53;5091943;28;20152;-52
2021/12/13 09:41:19;;;;;;;7.47;4.82;;;;;;;3.29;84.71;99887.63;5092249;28;20032;-52
2021/12/13 09:44:16;;;;;;;9.70;4.82;;;;;;;3.08;85.87;99883.53;5091667;28;20034;-53
2021/12/13 09:47:05;;;;;;;7.82;5.03;;;;;;;3.10;85.44;99883.38;5086507;28;20060;-51
2021/12/13 09:49:33;;;;;;;6.80;4.60;;;;;;;3.17;85.08;99886.25;5091480;28;20039;-53
2021/12/13 09:52:20;;;;;;;7.45;4.70;;;;;;;3.19;84.58;99885.09;5091922;28;20056;-53
2021/12/13 09:54:54;;;;;;;8.20;4.53;;;;;;;3.04;84.70;99892.69;5087797;28;20059;-51
2021/12/13 09:57:34;;;;;;;8.07;4.90;;;;;;;2.76;86.26;99884.09;5091674;28;20024;-52
2021/12/13 10:00:02;;;;;;;7.88;5.05;;;;;;;2.86;85.97;99881.38;5091357;28;20054;-54
2021/12/13 10:02:30;;;;;;;8.00;4.97;;;;;;;3.03;86.07;99884.97;5090407;28;20089;-54
2021/12/13 10:04:56;;;;;;;7.43;4.97;;;;;;;2.92;86.23;99878.97;5091397;28;20051;-53
2021/12/13 10:07:28;;;;;;;6.55;4.40;;;;;;;3.01;85.05;99871.97;5091287;28;20035;-53
2021/12/13 10:10:19;;;;;;;8.35;4.57;;;;;;;3.00;84.44;99882.63;5090681;28;20060;-52
2021/12/13 10:12:48;;;;;;;9.23;4.93;;;;;;;2.82;85.77;99882.63;5087645;28;20035;-53
2021/12/13 10:15:18;;;;;;;7.70;5.20;;;;;;;3.01;84.80;99885.13;5090371;28;20031;-53
2021/12/13 10:17:46;;;;;;;7.10;4.90;;;;;;;3.02;85.03;99880.69;5090373;28;20024;-53
2021/12/13 10:20:20;;;;;;;8.07;5.15;;;;;;;3.10;84.12;99878.13;5089887;28;20483;-52
2021/12/13 10:22:46;;;;;;;7.95;5.30;;;;;;;2.92;85.17;99883.41;5091189;28;20028;-51
2021/12/13 10:25:24;;;;;;;8.82;5.15;;;;;;;3.11;84.53;99885.84;5090547;28;20039;-53
2021/12/13 10:27:49;;;;;;;7.75;5.43;;;;;;;3.23;84.31;99880.38;5090519;28;20068;-53
2021/12/13 10:30:30;;;;;;;8.55;5.00;;;;;;;2.92;85.08;99884.22;5090212;28;20024;-50
2021/12/13 10:32:56;;;;;;;9.32;5.38;;;;;;;3.11;85.05;99890.31;5090710;28;20107;-53
2021/12/13 10:35:25;;;;;;;7.55;5.15;;;;;;;3.09;84.16;99887.81;5089473;28;20103;-52
2021/12/13 10:37:53;;;;;;;8.02;4.85;;;;;;;3.09;83.34;99890.44;5090542;28;20028;-51
2021/12/13 10:40:30;;;;;;;8.60;5.45;;;;;;;2.91;85.13;99885.19;5090274;28;20032;-52
2021/12/13 10:43:08;;;;;;;8.73;5.13;;;;;;;2.96;85.10;99889.19;5090677;28;20473;-52
2021/12/13 10:45:44;;;;;;;8.98;5.45;;;;;;;3.08;84.93;99888.78;5090141;28;20031;-53
2021/12/13 10:48:11;;;;;;;9.15;5.57;;;;;;;3.03;84.65;99893.69;5090344;28;20077;-53
2021/12/13 10:50:45;;;;;;;9.13;5.43;;;;;;;2.91;85.37;99884.34;5090631;28;20038;-53
2021/12/13 10:53:12;;;;;;;9.68;5.32;;;;;;;2.92;84.91;99883.41;5088449;28;20028;-53
2021/12/13 10:55:44;;;;;;;16.40;9.10;;;;;;;2.99;85.08;99883.59;5089987;28;20039;-55
2021/12/13 10:58:16;;;;;;;9.77;5.53;;;;;;;3.16;84.78;99881.94;5081622;28;20028;-55
2021/12/13 11:00:45;;;;;;;8.85;5.78;;;;;;;3.13;84.45;99881.28;5089866;28;20051;-52
2021/12/13 11:03:13;;;;;;;8.40;5.43;;;;;;;3.05;84.68;99870.69;5090059;28;20119;-54
2021/12/13 11:05:39;;;;;;;8.13;5.47;;;;;;;3.13;84.55;99875.19;5090005;28;20056;-52
2021/12/13 11:08:05;;;;;;;8.43;5.00;;;;;;;2.87;85.40;99878.56;5090108;28;20107;-54
2021/12/13 11:10:37;;;;;;;8.45;5.30;;;;;;;2.92;85.33;99875.50;5090224;28;20036;-53
2021/12/13 11:13:02;;;;;;;9.75;5.57;;;;;;;2.93;84.90;99870.09;5088390;28;20020;-54
2021/12/13 11:15:31;;;;;;;6.95;4.78;;;;;;;2.91;85.02;99865.94;5090256;28;20028;-52
2021/12/13 11:17:57;;;;;;;10.40;5.20;;;;;;;2.82;84.90;99864.22;5089902;28;20421;-54
2021/12/13 11:20:31;;;;;;;7.47;5.05;;;;;;;2.71;85.54;99866.13;5089632;28;20130;-54
2021/12/13 11:22:56;;;;;;;6.65;4.63;;;;;;;2.47;87.09;99865.88;5089012;28;20024;-53
2021/12/13 11:25:28;;;;;;;6.43;4.57;;;;;;;2.81;85.41;99862.59;5089663;28;20028;-54
2021/12/13 11:27:53;;;;;;;7.35;4.80;;;;;;;2.85;85.31;99866.56;5089853;28;20039;-52
2021/12/13 11:30:22;;;;;;;8.00;5.00;;;;;;;2.88;85.44;99866.28;5089366;28;20534;-53
2021/12/13 11:32:57;;;;;;;6.07;4.30;;;;;;;2.71;85.18;99867.91;5089537;28;20024;-55
2021/12/13 11:35:47;;;;;;;6.88;4.07;;;;;;;2.54;86.47;99865.13;5089526;28;20028;-55
2021/12/13 11:38:50;;;;;;;6.20;4.13;;;;;;;2.73;85.70;99869.41;5089309;28;20055;-54
2021/12/13 11:41:53;;;;;;;6.88;4.20;;;;;;;2.34;87.36;99867.06;5089013;28;20028;-54
2021/12/13 11:44:56;;;;;;;6.97;4.47;;;;;;;2.56;86.64;99869.41;5089705;28;20478;-52
2021/12/13 11:47:36;;;;;;;7.60;4.72;;;;;;;2.56;86.48;99864.16;5089300;28;20107;-54
2021/12/13 11:50:30;;;;;;;7.05;4.55;;;;;;;2.41;87.25;99869.91;5089207;28;20487;-52
2021/12/13 11:53:52;;;;;;;13.90;6.85;;;;;;;2.56;86.73;99864.97;5089622;28;20084;-54
2021/12/13 11:56:45;;;;;;;7.18;4.72;;;;;;;2.77;85.99;99861.25;5049435;28;20020;-53
2021/12/13 11:59:26;;;;;;;6.57;4.35;;;;;;;2.72;85.51;99864.31;5066542;28;20025;-53
2021/12/13 12:02:30;;;;;;;7.82;4.70;;;;;;;2.49;86.42;99869.97;5068136;28;20029;-52
2021/12/13 12:05:11;;;;;;;7.85;4.68;;;;;;;2.57;86.89;99868.41;5069204;28;20504;-54
2021/12/13 12:07:40;;;;;;;;;;;;;;;2.61;86.50;99872.41;5074000;28;20023;-53
2021/12/13 12:10:19;;;;;;;11.30;4.53;;;;;;;2.72;85.74;99875.66;5073285;28;19915;-53
2021/12/13 12:13:07;;;;;;;10.30;5.55;;;;;;;2.61;86.62;99875.88;5073242;28;20050;-53
2021/12/13 12:15:35;;;;;;;7.50;4.65;;;;;;;2.67;86.40;99877.09;5073108;28;20103;-53
2021/12/13 12:18:03;;;;;;;7.65;5.05;;;;;;;2.78;85.35;99876.88;5105535;28;20020;-54
2021/12/13 12:20:40;;;;;;;8.57;5.30;;;;;;;2.85;85.50;99869.19;5072762;28;20021;-52
2021/12/13 12:23:09;;;;;;;8.27;4.82;;;;;;;2.79;85.12;99878.50;5073165;28;20017;-53
2021/12/13 12:25:36;;;;;;;7.70;4.55;;;;;;;2.81;85.04;99883.63;5073212;28;20016;-52